TimeEDT,TemperatureF,Dew PointF,Humidity,Sea Level PressureIn,VisibilityMPH,Wind Direction,Wind SpeedMPH,Gust SpeedMPH,PrecipitationIn,Events,Conditions,WindDirDegrees,DateUTC
12:53 AM,57.9,55.0,90,30.01,-9999.0,Calm,Calm,-,N/A,,Unknown,0,2013-04-02 04:53:00
1:53 AM,55.0,52.0,89,30.01,-9999.0,Calm,Calm,-,N/A,,Unknown,0,2013-04-02 05:53:00
2:53 AM,54.0,51.1,90,30.01,-9999.0,Calm,Calm,-,N/A,,Unknown,0,2013-04-02 06:53:00
3:53 AM,52.0,50.0,93,30.01,-9999.0,Calm,Calm,-,N/A,,Unknown,0,2013-04-02 07:53:00
4:53 AM,51.1,48.0,89,30.02,-9999.0,Calm,Calm,-,N/A,,Unknown,0,2013-04-02 08:53:00
5:53 AM,50.0,46.9,89,30.03,-9999.0,Calm,Calm,-,N/A,,Unknown,0,2013-04-02 09:53:00
6:53 AM,48.0,46.0,93,30.05,-9999.0,Calm,Calm,-,N/A,,Unknown,0,2013-04-02 10:53:00
7:53 AM,48.0,45.0,89,30.09,-9999.0,Calm,Calm,-,N/A,,Unknown,0,2013-04-02 11:53:00
8:53 AM,59.0,53.1,81,30.11,-9999.0,NE,4.6,-,N/A,,Unknown,40,2013-04-02 12:53:00
9:53 AM,69.1,50.0,51,30.11,-9999.0,ENE,8.1,-,N/A,,Unknown,60,2013-04-02 13:53:00
10:53 AM,75.0,46.0,36,30.12,-9999.0,NE,6.9,-,N/A,,Unknown,50,2013-04-02 14:53:00
11:53 AM,77.0,45.0,32,30.12,-9999.0,East,4.6,-,N/A,,Unknown,90,2013-04-02 15:53:00
12:53 PM,80.1,46.0,30,30.10,-9999.0,East,5.8,-,N/A,,Unknown,80,2013-04-02 16:53:00
1:53 PM,82.9,45.0,26,30.08,-9999.0,Variable,4.6,-,N/A,,Unknown,0,2013-04-02 17:53:00
2:53 PM,84.0,45.0,25,30.05,-9999.0,Variable,4.6,-,N/A,,Unknown,0,2013-04-02 18:53:00
3:53 PM,84.0,44.1,25,30.03,-9999.0,Variable,4.6,-,N/A,,Unknown,0,2013-04-02 19:53:00
4:53 PM,84.9,43.0,23,30.03,-9999.0,SW,3.5,-,N/A,,Unknown,230,2013-04-02 20:53:00
5:53 PM,81.0,48.9,33,30.04,-9999.0,WSW,9.2,-,N/A,,Unknown,240,2013-04-02 21:53:00
6:53 PM,78.1,48.9,36,30.03,-9999.0,West,9.2,-,N/A,,Unknown,280,2013-04-02 22:53:00
7:53 PM,72.0,51.1,48,30.04,-9999.0,West,6.9,-,N/A,,Unknown,280,2013-04-02 23:53:00
8:53 PM,64.9,51.1,61,30.04,-9999.0,Calm,Calm,-,N/A,,Unknown,0,2013-04-03 00:53:00
9:53 PM,60.1,51.1,72,30.06,-9999.0,Calm,Calm,-,N/A,,Unknown,0,2013-04-03 01:53:00
10:53 PM,59.0,51.1,75,30.10,-9999.0,Calm,Calm,-,N/A,,Unknown,0,2013-04-03 02:53:00
11:53 PM,57.0,51.1,81,30.10,-9999.0,Calm,Calm,-,N/A,,Unknown,0,2013-04-03 03:53:00